Disclaimer

Please do not use the information listed here in-flight or in-navigation, as they are not provided to us by the airports but are provided by volunteers, so they might be outdated.

Search


Regions


Airport information page

Radio informations:
Tower (TWR) - 118.6 MHz
MONTERREY APP - 119.75 MHz

Airport informations:
Latitude: 25° 51' 56.06" N
Longitude: 100° 14' 14.06" W
Elevation: 1476 feet - 450 meters
Operating hours: Remarks
Operating agency: Civil government, landing fees and diplomatic clearance may be required
Timezone: UTC-6(-5DT) - First Sunday in April to the last Saturday in October
Fuel: Jet A1, without icing nhibitor.

100/130 octane gasoline, leaded, MIL-L-5572F (GREEN)

Runway information:
02/20 - 6598 x 148 feet< - >2011 x 45 meters
11/29 - 5049 x 148 feet< - >1539 x 45 meters

Recent METARs:
MMAN 162240Z 10005KT 15SM BKN200 19/02 A3011 RMK 8/001
MMAN 162340Z 12002KT 15SM BKN200 16/03 A3011 RMK SLP/// 5//// 9// 8/001
MMAN 162340Z 12002KT 15SM BKN200 16/03 A3011 RMK SLP/// 5//// 9// 8/001

Airport on the map: